sensor_id;sensor_type;location;lat;lon;timestamp;temperature;humidity
68648;SHT31;55632;51.962;16.116;2023-09-19T00:04:14;18.81;87.66
68648;SHT31;55632;51.962;16.116;2023-09-19T00:09:15;18.80;87.75
68648;SHT31;55632;51.962;16.116;2023-09-19T00:14:16;18.81;87.88
68648;SHT31;55632;51.962;16.116;2023-09-19T00:19:17;18.81;87.91
68648;SHT31;55632;51.962;16.116;2023-09-19T00:24:18;18.80;87.97
68648;SHT31;55632;51.962;16.116;2023-09-19T00:29:19;18.81;88.01
68648;SHT31;55632;51.962;16.116;2023-09-19T00:34:20;18.77;88.07
68648;SHT31;55632;51.962;16.116;2023-09-19T00:39:21;18.75;88.25
68648;SHT31;55632;51.962;16.116;2023-09-19T00:44:22;18.78;88.34
68648;SHT31;55632;51.962;16.116;2023-09-19T00:49:25;18.78;88.35
68648;SHT31;55632;51.962;16.116;2023-09-19T00:54:26;18.73;88.38
68648;SHT31;55632;51.962;16.116;2023-09-19T00:59:28;18.68;88.39
68648;SHT31;55632;51.962;16.116;2023-09-19T01:04:31;18.63;88.50
68648;SHT31;55632;51.962;16.116;2023-09-19T01:09:32;18.60;88.58
68648;SHT31;55632;51.962;16.116;2023-09-19T01:14:46;18.54;88.68
68648;SHT31;55632;51.962;16.116;2023-09-19T01:30:47;18.39;89.02
68648;SHT31;55632;51.962;16.116;2023-09-19T01:35:52;18.37;89.14
68648;SHT31;55632;51.962;16.116;2023-09-19T01:41:05;18.36;89.25
68648;SHT31;55632;51.962;16.116;2023-09-19T01:46:16;18.33;89.32
68648;SHT31;55632;51.962;16.116;2023-09-19T01:51:24;18.26;89.32
68648;SHT31;55632;51.962;16.116;2023-09-19T02:01:54;18.15;89.39
68648;SHT31;55632;51.962;16.116;2023-09-19T02:06:55;18.06;89.48
68648;SHT31;55632;51.962;16.116;2023-09-19T02:11:56;18.00;89.48
68648;SHT31;55632;51.962;16.116;2023-09-19T02:16:57;17.94;89.63
68648;SHT31;55632;51.962;16.116;2023-09-19T02:22:00;17.90;89.66
68648;SHT31;55632;51.962;16.116;2023-09-19T02:27:04;17.85;89.70
68648;SHT31;55632;51.962;16.116;2023-09-19T02:32:06;17.78;89.79
68648;SHT31;55632;51.962;16.116;2023-09-19T02:37:07;17.73;89.81
68648;SHT31;55632;51.962;16.116;2023-09-19T02:42:09;17.70;89.84
68648;SHT31;55632;51.962;16.116;2023-09-19T02:47:09;17.63;89.93
68648;SHT31;55632;51.962;16.116;2023-09-19T02:52:10;17.62;90.03
68648;SHT31;55632;51.962;16.116;2023-09-19T02:57:11;17.62;90.08
68648;SHT31;55632;51.962;16.116;2023-09-19T03:02:14;17.53;90.04
68648;SHT31;55632;51.962;16.116;2023-09-19T03:07:16;17.49;90.07
68648;SHT31;55632;51.962;16.116;2023-09-19T03:12:18;17.46;90.09
68648;SHT31;55632;51.962;16.116;2023-09-19T03:17:19;17.40;90.15
68648;SHT31;55632;51.962;16.116;2023-09-19T03:22:21;17.36;90.23
68648;SHT31;55632;51.962;16.116;2023-09-19T03:27:22;17.32;90.33
68648;SHT31;55632;51.962;16.116;2023-09-19T03:32:25;17.31;90.40
68648;SHT31;55632;51.962;16.116;2023-09-19T03:37:26;17.28;90.39
68648;SHT31;55632;51.962;16.116;2023-09-19T03:42:26;17.24;90.41
68648;SHT31;55632;51.962;16.116;2023-09-19T03:47:28;17.18;90.46
68648;SHT31;55632;51.962;16.116;2023-09-19T03:52:31;17.15;90.49
68648;SHT31;55632;51.962;16.116;2023-09-19T03:57:31;17.10;90.46
68648;SHT31;55632;51.962;16.116;2023-09-19T04:02:33;17.08;90.57
68648;SHT31;55632;51.962;16.116;2023-09-19T04:07:33;17.03;90.66
68648;SHT31;55632;51.962;16.116;2023-09-19T04:12:34;17.01;90.68
68648;SHT31;55632;51.962;16.116;2023-09-19T04:17:35;16.98;90.86
68648;SHT31;55632;51.962;16.116;2023-09-19T04:22:36;17.00;90.89
68648;SHT31;55632;51.962;16.116;2023-09-19T04:27:37;16.98;90.93
68648;SHT31;55632;51.962;16.116;2023-09-19T04:32:39;16.98;91.00
68648;SHT31;55632;51.962;16.116;2023-09-19T04:37:40;16.98;91.02
68648;SHT31;55632;51.962;16.116;2023-09-19T04:42:44;17.00;91.07
68648;SHT31;55632;51.962;16.116;2023-09-19T04:47:46;17.00;91.10
68648;SHT31;55632;51.962;16.116;2023-09-19T04:52:50;17.03;91.15
68648;SHT31;55632;51.962;16.116;2023-09-19T04:57:51;17.05;91.15
68648;SHT31;55632;51.962;16.116;2023-09-19T05:02:56;17.12;91.17
68648;SHT31;55632;51.962;16.116;2023-09-19T05:07:57;17.18;91.13
68648;SHT31;55632;51.962;16.116;2023-09-19T05:12:59;17.24;91.09
68648;SHT31;55632;51.962;16.116;2023-09-19T05:18:01;17.33;91.06
68648;SHT31;55632;51.962;16.116;2023-09-19T05:23:03;17.43;90.91
68648;SHT31;55632;51.962;16.116;2023-09-19T05:28:08;17.50;90.79
68648;SHT31;55632;51.962;16.116;2023-09-19T05:33:09;17.56;90.72
68648;SHT31;55632;51.962;16.116;2023-09-19T05:38:10;17.60;90.65
68648;SHT31;55632;51.962;16.116;2023-09-19T05:43:13;17.71;90.64
68648;SHT31;55632;51.962;16.116;2023-09-19T05:48:15;17.85;90.54
68648;SHT31;55632;51.962;16.116;2023-09-19T05:53:16;17.93;90.28
68648;SHT31;55632;51.962;16.116;2023-09-19T05:58:19;18.00;90.14
68648;SHT31;55632;51.962;16.116;2023-09-19T06:03:20;18.12;89.98
68648;SHT31;55632;51.962;16.116;2023-09-19T06:08:21;18.25;89.81
68648;SHT31;55632;51.962;16.116;2023-09-19T06:13:21;18.30;89.48
68648;SHT31;55632;51.962;16.116;2023-09-19T06:18:22;18.35;89.26
68648;SHT31;55632;51.962;16.116;2023-09-19T06:23:26;18.40;89.15
68648;SHT31;55632;51.962;16.116;2023-09-19T06:28:29;18.53;88.96
68648;SHT31;55632;51.962;16.116;2023-09-19T06:33:30;18.63;88.54
68648;SHT31;55632;51.962;16.116;2023-09-19T06:38:31;18.73;88.35
68648;SHT31;55632;51.962;16.116;2023-09-19T06:43:34;18.91;88.19
68648;SHT31;55632;51.962;16.116;2023-09-19T06:48:35;19.20;87.92
68648;SHT31;55632;51.962;16.116;2023-09-19T06:53:36;19.43;87.28
68648;SHT31;55632;51.962;16.116;2023-09-19T06:58:37;19.73;86.81
68648;SHT31;55632;51.962;16.116;2023-09-19T07:03:38;19.98;86.22
68648;SHT31;55632;51.962;16.116;2023-09-19T07:08:40;20.19;85.01
68648;SHT31;55632;51.962;16.116;2023-09-19T07:13:41;20.30;84.08
68648;SHT31;55632;51.962;16.116;2023-09-19T07:18:42;20.29;83.37
68648;SHT31;55632;51.962;16.116;2023-09-19T07:23:45;20.26;83.06
68648;SHT31;55632;51.962;16.116;2023-09-19T07:28:45;20.22;82.47
68648;SHT31;55632;51.962;16.116;2023-09-19T07:33:46;20.18;82.09
68648;SHT31;55632;51.962;16.116;2023-09-19T07:38:47;20.08;81.09
68648;SHT31;55632;51.962;16.116;2023-09-19T07:43:48;20.04;80.40
68648;SHT31;55632;51.962;16.116;2023-09-19T07:48:49;19.92;80.04
68648;SHT31;55632;51.962;16.116;2023-09-19T07:53:50;19.89;79.69
68648;SHT31;55632;51.962;16.116;2023-09-19T07:58:51;19.85;79.69
68648;SHT31;55632;51.962;16.116;2023-09-19T08:03:52;19.82;79.05
68648;SHT31;55632;51.962;16.116;2023-09-19T08:08:54;19.81;78.40
68648;SHT31;55632;51.962;16.116;2023-09-19T08:13:55;19.82;78.07
68648;SHT31;55632;51.962;16.116;2023-09-19T08:18:56;19.86;77.65
68648;SHT31;55632;51.962;16.116;2023-09-19T08:23:57;19.92;77.04
68648;SHT31;55632;51.962;16.116;2023-09-19T08:28:58;19.95;76.47
68648;SHT31;55632;51.962;16.116;2023-09-19T08:33:59;19.95;75.91
68648;SHT31;55632;51.962;16.116;2023-09-19T08:39:00;19.92;75.63
68648;SHT31;55632;51.962;16.116;2023-09-19T08:44:02;19.91;75.57
68648;SHT31;55632;51.962;16.116;2023-09-19T08:49:05;20.02;75.72
68648;SHT31;55632;51.962;16.116;2023-09-19T08:54:16;20.13;75.41
68648;SHT31;55632;51.962;16.116;2023-09-19T08:59:23;20.22;74.78
68648;SHT31;55632;51.962;16.116;2023-09-19T09:04:27;20.25;74.57
68648;SHT31;55632;51.962;16.116;2023-09-19T09:09:29;20.32;74.63
68648;SHT31;55632;51.962;16.116;2023-09-19T09:14:30;20.43;74.52
68648;SHT31;55632;51.962;16.116;2023-09-19T09:19:31;20.58;74.11
68648;SHT31;55632;51.962;16.116;2023-09-19T09:24:32;20.71;72.03
68648;SHT31;55632;51.962;16.116;2023-09-19T09:29:46;20.84;70.45
68648;SHT31;55632;51.962;16.116;2023-09-19T09:35:07;20.92;69.95
68648;SHT31;55632;51.962;16.116;2023-09-19T09:40:11;20.88;67.87
68648;SHT31;55632;51.962;16.116;2023-09-19T09:45:24;20.78;67.77
68648;SHT31;55632;51.962;16.116;2023-09-19T09:50:35;20.87;67.61
68648;SHT31;55632;51.962;16.116;2023-09-19T10:01:04;20.98;66.08
68648;SHT31;55632;51.962;16.116;2023-09-19T10:06:17;20.94;66.05
68648;SHT31;55632;51.962;16.116;2023-09-19T10:11:23;20.85;64.83
68648;SHT31;55632;51.962;16.116;2023-09-19T10:16:31;20.89;65.11
68648;SHT31;55632;51.962;16.116;2023-09-19T10:21:34;20.94;63.95
68648;SHT31;55632;51.962;16.116;2023-09-19T10:26:37;21.02;64.40
68648;SHT31;55632;51.962;16.116;2023-09-19T10:31:42;21.06;64.35
68648;SHT31;55632;51.962;16.116;2023-09-19T10:36:48;21.10;64.58
68648;SHT31;55632;51.962;16.116;2023-09-19T10:41:53;21.13;64.84
68648;SHT31;55632;51.962;16.116;2023-09-19T10:46:59;21.12;64.49
68648;SHT31;55632;51.962;16.116;2023-09-19T10:52:01;21.02;64.98
68648;SHT31;55632;51.962;16.116;2023-09-19T10:57:03;21.06;65.03
68648;SHT31;55632;51.962;16.116;2023-09-19T11:02:16;21.13;64.94
68648;SHT31;55632;51.962;16.116;2023-09-19T11:07:18;21.20;64.64
68648;SHT31;55632;51.962;16.116;2023-09-19T11:43:48;22.33;63.24
68648;SHT31;55632;51.962;16.116;2023-09-19T11:48:51;22.37;63.23
68648;SHT31;55632;51.962;16.116;2023-09-19T11:53:54;22.44;63.57
68648;SHT31;55632;51.962;16.116;2023-09-19T11:58:56;22.47;62.16
68648;SHT31;55632;51.962;16.116;2023-09-19T12:03:59;22.47;61.63
68648;SHT31;55632;51.962;16.116;2023-09-19T12:09:00;22.48;59.24
68648;SHT31;55632;51.962;16.116;2023-09-19T12:14:03;22.57;58.80
68648;SHT31;55632;51.962;16.116;2023-09-19T12:19:20;22.54;57.96
68648;SHT31;55632;51.962;16.116;2023-09-19T12:24:22;22.50;57.01
68648;SHT31;55632;51.962;16.116;2023-09-19T12:29:23;22.43;56.68
68648;SHT31;55632;51.962;16.116;2023-09-19T12:34:26;22.40;56.78
68648;SHT31;55632;51.962;16.116;2023-09-19T12:39:28;22.39;55.89
68648;SHT31;55632;51.962;16.116;2023-09-19T12:44:30;22.39;55.96
68648;SHT31;55632;51.962;16.116;2023-09-19T12:49:31;22.41;55.18
68648;SHT31;55632;51.962;16.116;2023-09-19T12:54:39;22.30;55.24
68648;SHT31;55632;51.962;16.116;2023-09-19T12:59:40;22.23;54.92
68648;SHT31;55632;51.962;16.116;2023-09-19T13:04:54;22.19;55.73
68648;SHT31;55632;51.962;16.116;2023-09-19T13:10:03;22.26;56.01
68648;SHT31;55632;51.962;16.116;2023-09-19T13:15:14;22.26;56.41
68648;SHT31;55632;51.962;16.116;2023-09-19T13:20:25;22.29;56.41
68648;SHT31;55632;51.962;16.116;2023-09-19T13:25:30;22.27;56.50
68648;SHT31;55632;51.962;16.116;2023-09-19T13:30:37;22.30;54.62
68648;SHT31;55632;51.962;16.116;2023-09-19T13:35:59;22.29;55.04
68648;SHT31;55632;51.962;16.116;2023-09-19T13:41:02;22.30;54.50
68648;SHT31;55632;51.962;16.116;2023-09-19T13:46:03;22.34;54.45
68648;SHT31;55632;51.962;16.116;2023-09-19T13:51:05;22.36;55.11
68648;SHT31;55632;51.962;16.116;2023-09-19T13:56:06;22.39;53.80
68648;SHT31;55632;51.962;16.116;2023-09-19T14:01:08;22.36;54.69
68648;SHT31;55632;51.962;16.116;2023-09-19T14:06:13;22.30;55.02
68648;SHT31;55632;51.962;16.116;2023-09-19T14:11:14;22.27;55.08
68648;SHT31;55632;51.962;16.116;2023-09-19T14:16:16;22.23;54.96
68648;SHT31;55632;51.962;16.116;2023-09-19T14:21:18;22.14;53.83
68648;SHT31;55632;51.962;16.116;2023-09-19T14:26:19;22.01;52.98
68648;SHT31;55632;51.962;16.116;2023-09-19T14:31:20;21.92;52.74
68648;SHT31;55632;51.962;16.116;2023-09-19T14:36:21;21.84;52.54
68648;SHT31;55632;51.962;16.116;2023-09-19T14:41:23;21.81;52.29
68648;SHT31;55632;51.962;16.116;2023-09-19T14:46:26;21.74;52.49
68648;SHT31;55632;51.962;16.116;2023-09-19T14:51:29;21.77;52.58
68648;SHT31;55632;51.962;16.116;2023-09-19T14:56:30;21.78;52.99
68648;SHT31;55632;51.962;16.116;2023-09-19T15:01:31;21.79;52.93
68648;SHT31;55632;51.962;16.116;2023-09-19T15:06:33;21.78;53.31
68648;SHT31;55632;51.962;16.116;2023-09-19T15:11:34;21.69;53.35
68648;SHT31;55632;51.962;16.116;2023-09-19T15:16:35;21.67;53.28
68648;SHT31;55632;51.962;16.116;2023-09-19T15:21:36;21.61;53.54
68648;SHT31;55632;51.962;16.116;2023-09-19T15:26:38;21.54;53.85
68648;SHT31;55632;51.962;16.116;2023-09-19T15:31:43;21.46;54.10
68648;SHT31;55632;51.962;16.116;2023-09-19T15:36:44;21.33;54.26
68648;SHT31;55632;51.962;16.116;2023-09-19T15:41:45;21.23;54.63
68648;SHT31;55632;51.962;16.116;2023-09-19T15:46:49;21.12;54.83
68648;SHT31;55632;51.962;16.116;2023-09-19T15:51:50;21.00;55.45
68648;SHT31;55632;51.962;16.116;2023-09-19T15:56:51;20.94;55.49
68648;SHT31;55632;51.962;16.116;2023-09-19T16:01:52;20.82;55.72
68648;SHT31;55632;51.962;16.116;2023-09-19T16:06:52;20.72;56.07
68648;SHT31;55632;51.962;16.116;2023-09-19T16:11:53;20.65;56.53
68648;SHT31;55632;51.962;16.116;2023-09-19T16:16:54;20.55;56.85
68648;SHT31;55632;51.962;16.116;2023-09-19T16:21:55;20.46;57.21
68648;SHT31;55632;51.962;16.116;2023-09-19T16:26:57;20.41;57.71
68648;SHT31;55632;51.962;16.116;2023-09-19T16:31:58;20.34;58.18
68648;SHT31;55632;51.962;16.116;2023-09-19T16:37:00;20.27;58.89
68648;SHT31;55632;51.962;16.116;2023-09-19T16:42:01;20.19;59.44
68648;SHT31;55632;51.962;16.116;2023-09-19T16:47:02;20.13;59.78
68648;SHT31;55632;51.962;16.116;2023-09-19T16:52:04;20.04;59.94
68648;SHT31;55632;51.962;16.116;2023-09-19T16:57:05;19.86;60.40
68648;SHT31;55632;51.962;16.116;2023-09-19T17:02:05;19.73;60.98
68648;SHT31;55632;51.962;16.116;2023-09-19T17:07:07;19.53;61.54
68648;SHT31;55632;51.962;16.116;2023-09-19T17:12:10;19.33;62.15
68648;SHT31;55632;51.962;16.116;2023-09-19T17:17:14;19.16;62.57
68648;SHT31;55632;51.962;16.116;2023-09-19T17:22:15;18.97;63.21
68648;SHT31;55632;51.962;16.116;2023-09-19T17:27:16;18.81;63.99
68648;SHT31;55632;51.962;16.116;2023-09-19T17:32:17;18.64;64.78
68648;SHT31;55632;51.962;16.116;2023-09-19T17:37:18;18.57;65.69
68648;SHT31;55632;51.962;16.116;2023-09-19T17:42:19;18.49;66.45
68648;SHT31;55632;51.962;16.116;2023-09-19T17:47:20;18.36;66.58
68648;SHT31;55632;51.962;16.116;2023-09-19T17:52:23;18.11;66.88
68648;SHT31;55632;51.962;16.116;2023-09-19T17:57:24;17.81;67.10
68648;SHT31;55632;51.962;16.116;2023-09-19T18:02:26;17.59;67.35
68648;SHT31;55632;51.962;16.116;2023-09-19T18:07:27;17.45;67.31
68648;SHT31;55632;51.962;16.116;2023-09-19T18:12:28;17.33;67.82
68648;SHT31;55632;51.962;16.116;2023-09-19T18:17:29;17.25;68.31
68648;SHT31;55632;51.962;16.116;2023-09-19T18:22:30;17.18;68.76
68648;SHT31;55632;51.962;16.116;2023-09-19T18:27:34;17.08;69.30
68648;SHT31;55632;51.962;16.116;2023-09-19T18:32:36;16.95;69.50
68648;SHT31;55632;51.962;16.116;2023-09-19T18:37:39;16.77;70.01
68648;SHT31;55632;51.962;16.116;2023-09-19T18:42:40;16.67;70.59
68648;SHT31;55632;51.962;16.116;2023-09-19T18:47:41;16.59;70.91
68648;SHT31;55632;51.962;16.116;2023-09-19T18:52:42;16.45;70.97
68648;SHT31;55632;51.962;16.116;2023-09-19T18:57:43;16.26;71.60
68648;SHT31;55632;51.962;16.116;2023-09-19T19:02:44;16.14;72.03
68648;SHT31;55632;51.962;16.116;2023-09-19T19:07:46;16.05;72.28
68648;SHT31;55632;51.962;16.116;2023-09-19T19:12:47;15.87;72.37
68648;SHT31;55632;51.962;16.116;2023-09-19T19:17:48;15.70;72.73
68648;SHT31;55632;51.962;16.116;2023-09-19T19:22:49;15.49;72.93
68648;SHT31;55632;51.962;16.116;2023-09-19T19:27:53;15.27;73.39
68648;SHT31;55632;51.962;16.116;2023-09-19T19:32:54;15.08;74.04
68648;SHT31;55632;51.962;16.116;2023-09-19T19:37:58;15.04;74.60
68648;SHT31;55632;51.962;16.116;2023-09-19T19:42:59;15.00;74.88
68648;SHT31;55632;51.962;16.116;2023-09-19T19:48:02;14.86;74.99
68648;SHT31;55632;51.962;16.116;2023-09-19T19:53:03;14.65;75.36
68648;SHT31;55632;51.962;16.116;2023-09-19T19:58:04;14.53;75.90
68648;SHT31;55632;51.962;16.116;2023-09-19T20:03:05;14.46;76.31
68648;SHT31;55632;51.962;16.116;2023-09-19T20:08:08;14.46;76.80
68648;SHT31;55632;51.962;16.116;2023-09-19T20:13:11;14.49;77.05
68648;SHT31;55632;51.962;16.116;2023-09-19T20:18:14;14.51;77.19
68648;SHT31;55632;51.962;16.116;2023-09-19T20:23:16;14.48;77.31
68648;SHT31;55632;51.962;16.116;2023-09-19T20:28:17;14.42;77.27
68648;SHT31;55632;51.962;16.116;2023-09-19T20:33:23;14.32;77.57
68648;SHT31;55632;51.962;16.116;2023-09-19T20:38:24;14.29;77.77
68648;SHT31;55632;51.962;16.116;2023-09-19T20:43:25;14.22;77.85
68648;SHT31;55632;51.962;16.116;2023-09-19T20:48:26;14.11;77.62
68648;SHT31;55632;51.962;16.116;2023-09-19T20:53:27;13.91;77.57
68648;SHT31;55632;51.962;16.116;2023-09-19T20:58:31;13.79;77.74
68648;SHT31;55632;51.962;16.116;2023-09-19T21:03:35;13.69;77.84
68648;SHT31;55632;51.962;16.116;2023-09-19T21:08:36;13.63;78.01
68648;SHT31;55632;51.962;16.116;2023-09-19T21:13:38;13.55;78.21
68648;SHT31;55632;51.962;16.116;2023-09-19T21:18:39;13.54;78.54
68648;SHT31;55632;51.962;16.116;2023-09-19T21:23:41;13.52;78.82
68648;SHT31;55632;51.962;16.116;2023-09-19T21:28:45;13.52;79.02
68648;SHT31;55632;51.962;16.116;2023-09-19T21:33:48;13.55;79.17
68648;SHT31;55632;51.962;16.116;2023-09-19T21:38:50;13.54;79.33
68648;SHT31;55632;51.962;16.116;2023-09-19T21:43:51;13.51;79.45
68648;SHT31;55632;51.962;16.116;2023-09-19T21:48:52;13.52;79.64
68648;SHT31;55632;51.962;16.116;2023-09-19T21:53:55;13.55;79.87
68648;SHT31;55632;51.962;16.116;2023-09-19T21:59:02;13.59;80.02
68648;SHT31;55632;51.962;16.116;2023-09-19T22:04:03;13.66;80.01
68648;SHT31;55632;51.962;16.116;2023-09-19T22:09:05;13.68;80.06
68648;SHT31;55632;51.962;16.116;2023-09-19T22:14:06;13.73;80.19
68648;SHT31;55632;51.962;16.116;2023-09-19T22:19:07;13.75;80.19
68648;SHT31;55632;51.962;16.116;2023-09-19T22:24:09;13.69;80.16
68648;SHT31;55632;51.962;16.116;2023-09-19T22:29:12;13.66;80.16
68648;SHT31;55632;51.962;16.116;2023-09-19T22:34:13;13.57;80.48
68648;SHT31;55632;51.962;16.116;2023-09-19T22:39:14;13.55;80.57
68648;SHT31;55632;51.962;16.116;2023-09-19T22:44:25;13.44;80.67
68648;SHT31;55632;51.962;16.116;2023-09-19T22:49:26;13.45;80.65
68648;SHT31;55632;51.962;16.116;2023-09-19T22:54:28;13.38;80.77
68648;SHT31;55632;51.962;16.116;2023-09-19T22:59:36;13.35;80.87
68648;SHT31;55632;51.962;16.116;2023-09-19T23:04:37;13.31;81.13
68648;SHT31;55632;51.962;16.116;2023-09-19T23:09:38;13.34;81.26
68648;SHT31;55632;51.962;16.116;2023-09-19T23:14:39;13.28;81.20
68648;SHT31;55632;51.962;16.116;2023-09-19T23:19:42;13.24;81.41
68648;SHT31;55632;51.962;16.116;2023-09-19T23:24:44;13.23;81.65
68648;SHT31;55632;51.962;16.116;2023-09-19T23:29:46;13.20;81.67
68648;SHT31;55632;51.962;16.116;2023-09-19T23:34:47;13.15;81.78
68648;SHT31;55632;51.962;16.116;2023-09-19T23:39:48;13.11;81.94
68648;SHT31;55632;51.962;16.116;2023-09-19T23:44:51;13.10;82.09
68648;SHT31;55632;51.962;16.116;2023-09-19T23:49:55;13.10;82.06
68648;SHT31;55632;51.962;16.116;2023-09-19T23:54:57;12.96;81.83
